Time;durP1;ratioP1;P1;durP2;ratioP2;P2;SDS_P1;SDS_P2;PMS_P1;PMS_P2;Temp;Humidity;BMP_temperature;BMP_pressure;BME280_temperature;BME280_humidity;BME280_pressure;Samples;Min_cycle;Max_cycle;Signal;HPM_P1;HPM_P2
2022/04/16 00:02:03;;;;;;;6.43;5.97;;;12.40;99.90;;;;;;5076150;28;20529;-84
2022/04/16 00:04:30;;;;;;;6.23;5.80;;;12.40;99.90;;;;;;5076241;28;20181;-87
2022/04/16 00:06:56;;;;;;;6.17;5.70;;;12.30;99.90;;;;;;5076156;28;20193;-88
2022/04/16 00:09:23;;;;;;;6.40;5.90;;;12.30;99.90;;;;;;5076297;28;20168;-88
2022/04/16 00:11:49;;;;;;;6.80;6.30;;;12.30;99.90;;;;;;5058488;28;20183;-88
2022/04/16 00:14:15;;;;;;;7.23;6.73;;;12.30;99.90;;;;;;5076074;28;20528;-87
2022/04/16 00:16:42;;;;;;;6.20;5.80;;;12.20;99.90;;;;;;5076496;28;20243;-88
2022/04/16 00:19:09;;;;;;;6.70;6.20;;;12.20;99.90;;;;;;5077269;28;20669;-87
2022/04/16 00:21:36;;;;;;;6.50;6.00;;;12.20;99.90;;;;;;5058728;28;20180;-88
2022/04/16 00:24:02;;;;;;;7.40;6.77;;;12.20;99.90;;;;;;5075877;28;20171;-89
2022/04/16 00:26:28;;;;;;;7.83;6.23;;;12.10;99.90;;;;;;5075987;28;20532;-87
2022/04/16 00:28:54;;;;;;;6.83;6.33;;;12.10;99.90;;;;;;5076898;28;20308;-87
2022/04/16 00:31:20;;;;;;;7.13;6.63;;;12.10;99.90;;;;;;5075702;28;20810;-88
2022/04/16 00:33:46;;;;;;;6.47;5.97;;;12.10;99.90;;;;;;5075523;28;20254;-88
2022/04/16 00:36:16;;;;;;;7.07;6.47;;;12.00;99.90;;;;;;5075384;28;20635;-86
2022/04/16 00:38:42;;;;;;;6.83;6.13;;;12.00;99.90;;;;;;5075523;28;20176;-85
2022/04/16 00:41:08;;;;;;;6.73;6.23;;;12.00;99.90;;;;;;5075459;28;20198;-85
2022/04/16 00:43:34;;;;;;;6.77;6.27;;;12.00;99.90;;;;;;5075250;28;20180;-87
2022/04/16 00:46:00;;;;;;;7.00;6.30;;;11.90;99.90;;;;;;5075570;28;20175;-89
2022/04/16 00:48:26;;;;;;;7.60;7.00;;;12.00;99.90;;;;;;5078566;28;20182;-88
2022/04/16 00:50:53;;;;;;;6.90;6.40;;;12.00;99.90;;;;;;5077905;28;20664;-87
2022/04/16 00:53:19;;;;;;;7.53;6.93;;;12.00;99.90;;;;;;5075854;28;20259;-88
2022/04/16 00:55:46;;;;;;;6.97;6.40;;;12.00;99.90;;;;;;5079260;28;20205;-87
2022/04/16 00:58:11;;;;;;;7.67;6.90;;;12.00;99.90;;;;;;5077419;28;20296;-87
2022/04/16 01:00:37;;;;;;;7.27;6.77;;;12.00;99.90;;;;;;5074835;28;20233;-89
2022/04/16 01:03:05;;;;;;;7.23;6.63;;;12.00;99.90;;;;;;5075016;28;20176;-87
2022/04/16 01:05:30;;;;;;;7.13;6.63;;;12.00;99.90;;;;;;5057029;28;20554;-88
2022/04/16 01:07:58;;;;;;;7.17;6.50;;;12.00;99.90;;;;;;5088647;28;20178;-86
2022/04/16 01:10:29;;;;;;;7.53;6.93;;;11.90;99.90;;;;;;5087095;28;20241;-87
2022/04/16 01:13:00;;;;;;;7.57;6.83;;;11.80;99.90;;;;;;5081121;28;20182;-87
2022/04/16 01:15:27;;;;;;;7.77;7.10;;;11.80;99.90;;;;;;5076802;28;20273;-87
2022/04/16 01:17:54;;;;;;;7.80;7.20;;;11.90;99.90;;;;;;5075378;28;20177;-89
2022/04/16 01:20:20;;;;;;;7.70;7.00;;;11.90;99.90;;;;;;5079847;28;20292;-88
2022/04/16 01:22:48;;;;;;;7.30;6.77;;;11.90;99.90;;;;;;5077248;28;20180;-88
2022/04/16 01:25:14;;;;;;;7.10;6.50;;;11.90;99.90;;;;;;5075866;28;20163;-88
2022/04/16 01:27:43;;;;;;;7.90;7.13;;;12.00;99.90;;;;;;5074609;28;20187;-84
2022/04/16 01:30:14;;;;;;;7.20;6.70;;;11.90;99.90;;;;;;5056222;28;20174;-85
2022/04/16 01:32:43;;;;;;;7.50;6.90;;;11.90;99.90;;;;;;5074549;28;20203;-85
2022/04/16 01:35:10;;;;;;;7.67;6.97;;;11.90;99.90;;;;;;5073993;28;20538;-86
2022/04/16 01:37:37;;;;;;;7.57;6.93;;;11.90;99.90;;;;;;5073936;28;20185;-84
2022/04/16 01:40:08;;;;;;;7.27;6.73;;;11.90;99.90;;;;;;5073976;28;20216;-84
2022/04/16 01:42:34;;;;;;;7.87;7.23;;;11.80;99.90;;;;;;5073302;28;20545;-86
2022/04/16 01:45:10;;;;;;;7.63;7.00;;;11.70;99.90;;;;;;5055961;28;20649;-85
2022/04/16 01:47:38;;;;;;;8.03;7.43;;;11.60;99.90;;;;;;5073868;28;20618;-84
2022/04/16 01:50:05;;;;;;;8.27;7.60;;;11.60;99.90;;;;;;5074093;28;20169;-85
2022/04/16 01:52:33;;;;;;;8.67;7.73;;;11.60;99.90;;;;;;5074370;28;20178;-88
2022/04/16 01:54:59;;;;;;;7.77;7.17;;;11.60;99.90;;;;;;5074796;28;20194;-87
2022/04/16 01:57:25;;;;;;;8.40;7.70;;;11.60;99.90;;;;;;5057426;28;20185;-87
2022/04/16 01:59:50;;;;;;;7.47;6.97;;;11.60;99.90;;;;;;5074583;28;20263;-87
2022/04/16 02:02:17;;;;;;;7.97;7.37;;;11.70;99.90;;;;;;5075159;28;20177;-88
2022/04/16 02:04:43;;;;;;;8.60;7.80;;;11.70;99.90;;;;;;5058202;28;20183;-86
2022/04/16 02:07:09;;;;;;;7.80;7.20;;;11.70;99.90;;;;;;5074234;28;20171;-85
2022/04/16 02:09:35;;;;;;;8.00;7.30;;;11.70;99.90;;;;;;5073713;28;20295;-88
2022/04/16 02:12:01;;;;;;;7.50;7.00;;;11.70;99.90;;;;;;5055927;28;20186;-86
2022/04/16 02:14:27;;;;;;;8.17;7.47;;;11.80;99.90;;;;;;5073579;28;20219;-86
2022/04/16 02:16:53;;;;;;;7.70;7.00;;;11.80;99.90;;;;;;5073722;28;20166;-86
2022/04/16 02:19:20;;;;;;;8.30;7.60;;;11.80;99.90;;;;;;5073355;28;20174;-85
2022/04/16 02:21:47;;;;;;;7.93;7.23;;;11.70;99.90;;;;;;5073279;28;20181;-85
2022/04/16 02:24:13;;;;;;;8.07;7.40;;;11.70;99.90;;;;;;5073332;28;20498;-86
2022/04/16 02:26:43;;;;;;;8.33;7.63;;;11.60;99.90;;;;;;5073409;28;20594;-86
2022/04/16 02:29:10;;;;;;;7.93;7.30;;;11.50;99.90;;;;;;5073599;28;20629;-87
2022/04/16 02:31:39;;;;;;;7.80;7.20;;;11.50;99.90;;;;;;5073770;28;20200;-85
2022/04/16 02:34:07;;;;;;;8.30;7.60;;;11.60;99.90;;;;;;5073719;28;20170;-86
2022/04/16 02:36:33;;;;;;;8.40;7.70;;;11.50;99.90;;;;;;5073471;28;20519;-86
2022/04/16 02:39:00;;;;;;;7.87;7.27;;;11.50;99.90;;;;;;5073203;28;20175;-87
2022/04/16 02:41:26;;;;;;;8.10;7.40;;;11.40;99.90;;;;;;5073189;28;20305;-85
2022/04/16 02:43:54;;;;;;;8.27;7.57;;;11.30;99.90;;;;;;5074430;28;20260;-85
2022/04/16 02:49:06;;;;;;;8.40;7.70;;;11.20;99.90;;;;;;5074458;28;20168;-86
2022/04/16 02:51:32;;;;;;;7.87;7.17;;;11.20;99.90;;;;;;5073396;28;20171;-88
2022/04/16 02:53:58;;;;;;;8.03;7.43;;;11.10;99.90;;;;;;5076823;28;20589;-89
2022/04/16 02:56:24;;;;;;;7.93;7.33;;;11.10;99.90;;;;;;5077633;28;20178;-87
2022/04/16 02:58:50;;;;;;;8.07;7.43;;;11.10;99.90;;;;;;5077379;28;20175;-88
2022/04/16 03:01:16;;;;;;;8.30;7.63;;;11.00;99.90;;;;;;5077143;28;20205;-86
2022/04/16 03:03:42;;;;;;;8.90;8.10;;;11.00;99.90;;;;;;5077509;28;20644;-89
2022/04/16 03:06:08;;;;;;;8.13;7.53;;;11.00;99.90;;;;;;5059377;28;20175;-87
2022/04/16 03:08:34;;;;;;;8.30;7.70;;;10.90;99.90;;;;;;5078293;28;20234;-88
2022/04/16 03:11:00;;;;;;;7.80;7.20;;;10.90;99.90;;;;;;5077778;28;20250;-85
2022/04/16 03:13:26;;;;;;;7.87;7.27;;;10.80;99.90;;;;;;5079800;28;20249;-88
2022/04/16 03:18:36;;;;;;;8.40;7.57;;;10.70;99.90;;;;;;5078559;28;20174;-85
2022/04/16 03:21:03;;;;;;;8.87;8.17;;;10.70;99.90;;;;;;5078729;28;20556;-87
2022/04/16 03:23:29;;;;;;;7.63;7.10;;;10.70;99.90;;;;;;5077110;28;20534;-86
2022/04/16 03:26:00;;;;;;;8.93;8.00;;;10.60;99.90;;;;;;5060365;28;20181;-85
2022/04/16 03:28:26;;;;;;;8.33;7.63;;;10.60;99.90;;;;;;5077082;28;20525;-83
2022/04/16 03:30:53;;;;;;;8.50;7.73;;;10.50;99.90;;;;;;5076657;28;20171;-86
2022/04/16 03:33:20;;;;;;;8.47;7.77;;;10.40;99.90;;;;;;5076587;28;20191;-85
2022/04/16 03:35:45;;;;;;;8.37;7.70;;;10.40;99.90;;;;;;5076369;28;20692;-85
2022/04/16 03:38:11;;;;;;;8.40;7.70;;;10.30;99.90;;;;;;5058662;28;20213;-88
2022/04/16 03:40:38;;;;;;;8.47;7.67;;;10.20;99.90;;;;;;5077250;28;20305;-84
2022/04/16 03:43:04;;;;;;;7.97;7.27;;;10.20;99.90;;;;;;5078717;28;20621;-86
2022/04/16 03:45:34;;;;;;;8.10;7.40;;;10.20;99.90;;;;;;5078179;28;20179;-88
2022/04/16 03:48:02;;;;;;;9.00;7.60;;;10.20;99.90;;;;;;5077460;28;20178;-86
2022/04/16 03:50:30;;;;;;;8.13;7.33;;;10.20;99.90;;;;;;5076481;28;20169;-86
2022/04/16 03:52:56;;;;;;;7.77;7.07;;;10.10;99.90;;;;;;5076461;28;20166;-89
2022/04/16 04:01:00;;;;;;;8.50;7.80;;;10.00;99.90;;;;;;5096576;28;20703;-90
2022/04/16 04:03:26;;;;;;;8.27;7.60;;;10.00;99.90;;;;;;5096407;28;20170;-87
2022/04/16 04:05:56;;;;;;;7.87;7.20;;;9.90;99.90;;;;;;5096555;28;20191;-86
2022/04/16 04:08:23;;;;;;;9.67;7.17;;;9.90;99.90;;;;;;5097599;28;20158;-88
2022/04/16 04:10:49;;;;;;;8.40;7.63;;;9.90;99.90;;;;;;5097970;28;20312;-87
2022/04/16 04:13:16;;;;;;;7.93;7.33;;;9.80;99.90;;;;;;5098988;28;20257;-88
2022/04/16 04:15:42;;;;;;;8.23;7.53;;;9.90;99.90;;;;;;5096044;28;20169;-87
2022/04/16 04:18:07;;;;;;;8.87;8.17;;;9.90;99.90;;;;;;5095829;28;20672;-88
2022/04/16 04:20:35;;;;;;;8.03;7.33;;;9.80;99.90;;;;;;5095727;28;20212;-84
2022/04/16 04:23:04;;;;;;;9.07;8.13;;;9.80;99.90;;;;;;5095896;28;20167;-87
2022/04/16 04:25:30;;;;;;;8.87;8.17;;;9.80;99.90;;;;;;5095773;28;20208;-87
2022/04/16 04:27:56;;;;;;;9.13;8.33;;;9.70;99.90;;;;;;5096473;28;20166;-86
2022/04/16 04:30:22;;;;;;;8.53;7.77;;;9.80;99.90;;;;;;5078431;28;20166;-88
2022/04/16 04:32:48;;;;;;;8.50;7.80;;;9.80;99.90;;;;;;5077582;28;20178;-86
2022/04/16 04:35:14;;;;;;;8.27;7.53;;;9.80;99.90;;;;;;5095651;28;20168;-84
2022/04/16 04:37:39;;;;;;;9.33;8.27;;;9.70;99.90;;;;;;5095427;28;20170;-85
2022/04/16 04:40:06;;;;;;;9.53;8.60;;;9.60;99.90;;;;;;5095175;28;20753;-88
2022/04/16 04:42:34;;;;;;;8.50;7.87;;;9.70;99.90;;;;;;5095732;28;20170;-85
2022/04/16 04:45:08;;;;;;;9.40;8.50;;;9.70;99.90;;;;;;5077397;28;20181;-87
2022/04/16 04:47:33;;;;;;;8.60;7.67;;;9.80;99.90;;;;;;5095761;28;20154;-89
2022/04/16 04:49:59;;;;;;;9.07;8.17;;;9.80;99.90;;;;;;5095182;28;20299;-88
2022/04/16 04:52:27;;;;;;;9.13;8.40;;;9.80;99.90;;;;;;5095144;28;20169;-88
2022/04/16 04:54:53;;;;;;;9.60;8.67;;;9.80;99.90;;;;;;5095605;28;20275;-87
2022/04/16 04:57:19;;;;;;;9.27;8.47;;;9.80;99.90;;;;;;5095266;28;20526;-88
2022/04/16 04:59:45;;;;;;;9.00;8.30;;;9.90;99.90;;;;;;5094707;28;20205;-87
2022/04/16 05:02:11;;;;;;;8.80;8.00;;;9.80;99.90;;;;;;5077321;28;20170;-87
2022/04/16 05:04:37;;;;;;;10.70;9.70;;;9.80;99.90;;;;;;5099131;28;20174;-86
2022/04/16 05:07:07;;;;;;;9.03;8.33;;;9.90;99.90;;;;;;5078214;28;20178;-90
2022/04/16 05:09:33;;;;;;;9.20;8.30;;;9.90;99.90;;;;;;5097014;28;20256;-88
2022/04/16 05:11:59;;;;;;;8.63;7.93;;;9.90;99.90;;;;;;5103733;28;20173;-89
2022/04/16 05:14:25;;;;;;;9.13;8.33;;;10.00;99.90;;;;;;5097639;28;20238;-87
2022/04/16 05:16:51;;;;;;;8.70;8.00;;;10.00;99.90;;;;;;5094625;28;20212;-89
2022/04/16 05:19:16;;;;;;;8.70;8.00;;;10.00;99.90;;;;;;5095398;28;20695;-87
2022/04/16 05:21:42;;;;;;;9.10;8.30;;;10.00;99.90;;;;;;5098918;28;20177;-86
2022/04/16 05:24:09;;;;;;;9.93;8.50;;;10.00;99.90;;;;;;5115458;28;20538;-87
2022/04/16 05:26:35;;;;;;;10.27;8.30;;;10.10;99.90;;;;;;5118748;28;20189;-84
2022/04/16 05:29:01;;;;;;;8.73;8.10;;;10.20;99.90;;;;;;5102428;28;20179;-88
2022/04/16 05:31:29;;;;;;;8.43;7.73;;;10.20;99.90;;;;;;5095202;28;20618;-87
2022/04/16 05:36:39;;;;;;;7.33;6.70;;;10.30;99.90;;;;;;5090055;28;20170;-84
2022/04/16 05:39:05;;;;;;;6.57;6.07;;;10.40;99.90;;;;;;5084257;28;20181;-86
2022/04/16 05:41:34;;;;;;;4.80;4.50;;;10.50;99.90;;;;;;5095208;28;20700;-87
2022/04/16 05:44:00;;;;;;;4.67;4.13;;;10.60;99.90;;;;;;5094445;28;20168;-85
2022/04/16 05:46:26;;;;;;;3.87;3.67;;;10.60;99.90;;;;;;5094316;28;20179;-86
2022/04/16 05:48:52;;;;;;;3.83;3.60;;;10.70;99.90;;;;;;5094085;28;20672;-85
2022/04/16 05:51:18;;;;;;;3.53;3.33;;;10.80;99.90;;;;;;5093955;28;20179;-85
2022/04/16 05:53:46;;;;;;;3.30;3.20;;;11.00;99.90;;;;;;5094136;28;20167;-84
2022/04/16 05:56:13;;;;;;;2.90;2.80;;;11.20;99.00;;;;;;5094024;28;20174;-85
2022/04/16 05:58:40;;;;;;;2.73;2.63;;;11.30;99.10;;;;;;5093743;28;20652;-85
2022/04/16 06:01:07;;;;;;;3.00;2.87;;;11.40;97.80;;;;;;5093740;28;20283;-85
2022/04/16 06:03:36;;;;;;;2.30;2.20;;;11.50;97.10;;;;;;5093889;28;20166;-84
2022/04/16 06:06:03;;;;;;;1.97;1.90;;;11.60;95.60;;;;;;5094446;28;20166;-84
2022/04/16 06:08:29;;;;;;;1.90;1.90;;;11.70;94.70;;;;;;5094017;28;20257;-86
2022/04/16 06:10:54;;;;;;;2.00;1.90;;;11.70;94.20;;;;;;5092913;28;20638;-85
2022/04/16 06:13:20;;;;;;;1.93;1.93;;;11.70;93.70;;;;;;5093511;28;20175;-86
2022/04/16 06:15:46;;;;;;;1.90;1.90;;;11.80;93.60;;;;;;5094256;28;20490;-87
2022/04/16 06:18:12;;;;;;;1.90;1.80;;;11.80;93.10;;;;;;5095548;28;20250;-84
2022/04/16 06:20:38;;;;;;;1.90;1.80;;;11.80;92.50;;;;;;5095089;28;20209;-86
2022/04/16 06:23:05;;;;;;;1.70;1.70;;;11.90;92.50;;;;;;5092805;28;20170;-88
2022/04/16 06:25:31;;;;;;;1.50;1.50;;;11.90;92.30;;;;;;5076796;28;20179;-85
2022/04/16 06:27:57;;;;;;;1.77;1.70;;;12.00;92.10;;;;;;5099573;28;20169;-86
2022/04/16 06:30:23;;;;;;;1.80;1.70;;;11.90;92.00;;;;;;5093814;28;20178;-85
2022/04/16 06:32:49;;;;;;;1.73;1.50;;;12.00;91.80;;;;;;5066942;28;20175;-85
2022/04/16 06:35:14;;;;;;;1.50;1.50;;;12.00;91.40;;;;;;5073022;28;20686;-85
2022/04/16 06:37:43;;;;;;;1.63;1.63;;;12.10;91.90;;;;;;5054752;28;20178;-85
2022/04/16 06:40:10;;;;;;;1.80;1.70;;;12.20;91.10;;;;;;5072575;28;20665;-84
2022/04/16 06:42:37;;;;;;;1.70;1.70;;;12.20;91.10;;;;;;5072650;28;20181;-83
2022/04/16 06:45:05;;;;;;;1.73;1.63;;;12.20;91.10;;;;;;5072880;28;20175;-85
2022/04/16 06:47:31;;;;;;;1.83;1.73;;;12.20;90.80;;;;;;5072874;28;20175;-86
2022/04/16 06:49:57;;;;;;;1.97;1.67;;;12.20;90.80;;;;;;5071976;28;20175;-87
2022/04/16 06:52:23;;;;;;;1.50;1.50;;;12.10;90.90;;;;;;5054870;28;20644;-88
2022/04/16 06:54:49;;;;;;;1.50;1.50;;;12.10;90.60;;;;;;5055519;28;20173;-87
2022/04/16 06:57:15;;;;;;;1.70;1.70;;;12.20;90.30;;;;;;5075321;28;20656;-88
2022/04/16 06:59:42;;;;;;;1.60;1.60;;;12.20;90.10;;;;;;5075128;28;20211;-88
2022/04/16 07:02:09;;;;;;;1.77;1.77;;;12.30;90.10;;;;;;5073076;28;20219;-87
2022/04/16 07:04:35;;;;;;;1.67;1.67;;;12.50;90.20;;;;;;5073296;28;20206;-87
2022/04/16 07:07:02;;;;;;;1.37;1.37;;;12.60;90.20;;;;;;5055448;28;20181;-87
2022/04/16 07:09:28;;;;;;;1.33;1.33;;;12.80;88.80;;;;;;5055107;28;20265;-87
2022/04/16 07:11:54;;;;;;;1.40;1.40;;;12.90;88.00;;;;;;5056218;28;20183;-88
2022/04/16 07:14:21;;;;;;;1.50;1.50;;;13.00;87.50;;;;;;5074303;28;20513;-87
2022/04/16 07:16:47;;;;;;;1.30;1.30;;;13.10;86.90;;;;;;5074766;28;20169;-88
2022/04/16 07:19:13;;;;;;;1.47;1.47;;;13.10;86.40;;;;;;5075611;28;20173;-86
2022/04/16 07:21:39;;;;;;;1.30;1.30;;;13.00;85.70;;;;;;5060369;28;20211;-86
2022/04/16 07:24:04;;;;;;;1.30;1.20;;;13.10;85.90;;;;;;5057019;28;20177;-91
2022/04/16 07:26:30;;;;;;;1.20;1.20;;;13.10;85.20;;;;;;5074329;28;20190;-86
2022/04/16 07:28:56;;;;;;;1.20;1.20;;;13.20;85.20;;;;;;5056378;28;20184;-87
2022/04/16 07:31:22;;;;;;;1.23;1.23;;;13.30;84.60;;;;;;5058084;28;20171;-87
2022/04/16 07:33:48;;;;;;;1.23;1.23;;;13.30;84.90;;;;;;5074563;28;20178;-86
2022/04/16 07:36:14;;;;;;;1.20;1.20;;;13.30;84.00;;;;;;5075784;28;20198;-89
2022/04/16 07:38:43;;;;;;;1.17;1.17;;;13.30;84.00;;;;;;5058603;28;20530;-87
2022/04/16 07:41:10;;;;;;;1.30;1.20;;;13.30;84.00;;;;;;5082271;28;20229;-85
2022/04/16 07:43:35;;;;;;;1.23;1.17;;;13.40;83.10;;;;;;5084293;28;20199;-88
2022/04/16 07:46:01;;;;;;;2.00;1.20;;;13.50;83.50;;;;;;5064648;28;20184;-88
2022/04/16 07:48:27;;;;;;;1.33;1.23;;;13.50;83.60;;;;;;5081305;28;20257;-87
2022/04/16 07:50:53;;;;;;;1.20;1.20;;;13.70;84.30;;;;;;5078838;28;20182;-85
2022/04/16 07:53:20;;;;;;;1.40;1.20;;;13.70;83.50;;;;;;5078305;28;20228;-85
2022/04/16 07:55:47;;;;;;;1.10;1.10;;;13.80;82.90;;;;;;5077195;28;20183;-88
2022/04/16 07:58:13;;;;;;;1.60;1.17;;;13.70;81.90;;;;;;5076723;28;20204;-85
2022/04/16 08:00:39;;;;;;;0.90;0.90;;;13.60;82.50;;;;;;5076624;28;20208;-86
2022/04/16 08:03:05;;;;;;;1.00;1.00;;;13.50;82.60;;;;;;5076184;28;20194;-87
2022/04/16 08:05:31;;;;;;;1.03;1.03;;;13.60;82.20;;;;;;5076189;28;20184;-86
2022/04/16 08:07:57;;;;;;;0.90;0.90;;;13.70;82.30;;;;;;5075991;28;20178;-87
2022/04/16 08:10:23;;;;;;;1.20;1.10;;;13.80;82.60;;;;;;5075905;28;20577;-87
2022/04/16 08:12:49;;;;;;;1.00;1.00;;;13.90;81.90;;;;;;5058257;28;20179;-89
2022/04/16 08:15:15;;;;;;;1.00;1.00;;;14.10;80.90;;;;;;5075914;28;20176;-86
2022/04/16 08:17:41;;;;;;;1.03;1.03;;;13.90;81.20;;;;;;5075912;28;20191;-87
2022/04/16 08:20:07;;;;;;;1.13;1.13;;;13.90;81.20;;;;;;5075912;28;20614;-86
2022/04/16 08:22:34;;;;;;;1.10;1.10;;;13.90;81.40;;;;;;5077993;28;20550;-88
2022/04/16 08:27:43;;;;;;;0.93;0.93;;;14.10;81.50;;;;;;5078260;28;20606;-87
2022/04/16 08:30:13;;;;;;;0.87;0.87;;;14.20;80.60;;;;;;5076386;28;20173;-85
2022/04/16 08:32:42;;;;;;;0.70;0.70;;;14.40;79.90;;;;;;5057811;28;20170;-86
2022/04/16 08:35:10;;;;;;;0.80;0.80;;;14.50;79.40;;;;;;5075360;28;20530;-87
2022/04/16 08:37:36;;;;;;;0.80;0.80;;;14.70;78.80;;;;;;5075493;28;20250;-86
2022/04/16 08:40:05;;;;;;;0.90;0.90;;;14.60;78.40;;;;;;5075432;28;20195;-85
2022/04/16 08:42:33;;;;;;;0.63;0.63;;;14.60;77.50;;;;;;5075733;28;20171;-87
2022/04/16 08:45:01;;;;;;;0.77;0.77;;;14.70;78.50;;;;;;5075186;28;20182;-88
2022/04/16 08:47:27;;;;;;;0.63;0.63;;;14.70;78.90;;;;;;5075821;28;20196;-87
2022/04/16 08:49:53;;;;;;;0.60;0.60;;;14.70;77.40;;;;;;5075363;28;20173;-86
2022/04/16 08:52:28;;;;;;;0.80;0.80;;;14.50;77.00;;;;;;5056988;28;20614;-86
2022/04/16 08:54:55;;;;;;;0.93;0.80;;;14.30;77.90;;;;;;5075060;28;20158;-86
2022/04/16 08:57:21;;;;;;;0.73;0.73;;;14.20;77.60;;;;;;5056962;28;20605;-86
2022/04/16 08:59:54;;;;;;;0.60;0.60;;;14.10;77.50;;;;;;5061629;28;20291;-87
2022/04/16 09:02:22;;;;;;;0.80;0.80;;;14.10;77.60;;;;;;5077966;28;20156;-86
2022/04/16 09:04:48;;;;;;;1.27;0.80;;;14.20;77.80;;;;;;5075010;28;20174;-86
2022/04/16 09:07:15;;;;;;;0.80;0.80;;;14.30;78.00;;;;;;5057061;28;20585;-86
2022/04/16 09:09:44;;;;;;;0.80;0.80;;;14.50;77.70;;;;;;5053318;28;20789;-86
2022/04/16 09:12:17;;;;;;;0.43;0.43;;;14.80;78.30;;;;;;5054954;28;20231;-85
2022/04/16 09:14:45;;;;;;;0.60;0.60;;;14.90;75.80;;;;;;5053336;28;20183;-86
2022/04/16 09:17:18;;;;;;;1.50;0.80;;;14.70;77.20;;;;;;5054511;28;20261;-87
2022/04/16 09:19:54;;;;;;;0.70;0.70;;;14.80;77.20;;;;;;5053327;28;20210;-86
2022/04/16 09:22:31;;;;;;;1.00;1.00;;;14.80;76.10;;;;;;5054939;28;20237;-87
2022/04/16 09:24:57;;;;;;;0.70;0.70;;;14.90;76.20;;;;;;5054684;28;20195;-86
2022/04/16 09:27:23;;;;;;;0.70;0.70;;;15.00;76.40;;;;;;5054586;28;20178;-86
2022/04/16 09:29:48;;;;;;;0.50;0.50;;;15.10;75.90;;;;;;5054564;28;20598;-87
2022/04/16 09:32:24;;;;;;;0.60;0.60;;;15.20;76.60;;;;;;5054428;28;20175;-86
2022/04/16 09:34:53;;;;;;;0.50;0.50;;;15.30;75.70;;;;;;5054276;28;20203;-86
2022/04/16 09:37:21;;;;;;;0.70;0.70;;;15.10;75.10;;;;;;5054240;28;20643;-86
2022/04/16 09:39:47;;;;;;;0.60;0.60;;;15.10;75.20;;;;;;5054117;28;20547;-86
2022/04/16 09:42:24;;;;;;;0.50;0.50;;;15.00;75.30;;;;;;5052734;28;20180;-86
2022/04/16 09:44:50;;;;;;;6.83;5.60;;;15.00;75.90;;;;;;5054296;28;20159;-86
2022/04/16 09:47:20;;;;;;;2.10;2.00;;;15.00;75.90;;;;;;5054081;28;20670;-86
2022/04/16 09:49:47;;;;;;;1.20;1.20;;;14.90;76.20;;;;;;5054210;28;20165;-86
2022/04/16 09:52:13;;;;;;;0.50;0.50;;;14.80;74.80;;;;;;5055032;28;20172;-93
2022/04/16 09:54:39;;;;;;;0.30;0.30;;;14.90;73.30;;;;;;5054574;28;20212;-86
2022/04/16 09:57:07;;;;;;;0.37;0.37;;;14.90;73.20;;;;;;5054317;28;20214;-86
2022/04/16 09:59:35;;;;;;;0.40;0.40;;;15.10;73.60;;;;;;5053829;28;20311;-86
2022/04/16 10:02:03;;;;;;;0.57;0.57;;;15.20;73.60;;;;;;5052406;28;20194;-85
2022/04/16 10:04:30;;;;;;;0.40;0.40;;;15.30;74.00;;;;;;5054450;28;20179;-85
2022/04/16 10:06:56;;;;;;;0.50;0.50;;;15.40;73.20;;;;;;5054597;28;20204;-89
2022/04/16 10:09:24;;;;;;;0.40;0.40;;;15.50;72.40;;;;;;5055427;28;20527;-86
2022/04/16 10:14:54;;;;;;;0.30;0.30;;;15.60;72.90;;;;;;5054413;28;20179;-85
2022/04/16 10:17:27;;;;;;;0.30;0.30;;;15.30;71.90;;;;;;5053983;28;20298;-86
2022/04/16 10:19:56;;;;;;;0.40;0.40;;;15.00;72.10;;;;;;5053662;28;20215;-87
2022/04/16 10:22:27;;;;;;;0.47;0.47;;;14.80;72.10;;;;;;5053818;28;20178;-85
2022/04/16 10:24:59;;;;;;;0.40;0.40;;;14.80;72.30;;;;;;5053535;28;20172;-87
2022/04/16 10:27:31;;;;;;;0.40;0.40;;;14.70;72.80;;;;;;5053550;28;20164;-85
2022/04/16 10:30:02;;;;;;;0.60;0.60;;;14.60;73.10;;;;;;5051984;28;20184;-85
2022/04/16 10:32:41;;;;;;;0.50;0.50;;;14.60;73.20;;;;;;5051992;28;20193;-85
2022/04/16 10:35:15;;;;;;;0.57;0.57;;;14.70;73.30;;;;;;5053513;28;20522;-84
2022/04/16 10:37:42;;;;;;;1.50;0.40;;;14.80;73.30;;;;;;5035479;28;20194;-85
2022/04/16 10:40:19;;;;;;;0.50;0.50;;;15.00;73.20;;;;;;5053256;28;20206;-85
2022/04/16 10:43:12;;;;;;;0.30;0.30;;;15.00;73.70;;;;;;5051817;28;20175;-85
2022/04/16 10:46:03;;;;;;;0.53;0.53;;;14.90;74.50;;;;;;5050618;28;20183;-86
2022/04/16 10:48:32;;;;;;;0.40;0.40;;;15.00;74.70;;;;;;5052256;28;20176;-85
2022/04/16 10:50:59;;;;;;;0.30;0.30;;;15.00;74.50;;;;;;5052260;28;20225;-85
2022/04/16 10:53:29;;;;;;;0.20;0.20;;;15.10;74.40;;;;;;5053629;28;20257;-87
2022/04/16 10:55:56;;;;;;;0.40;0.40;;;15.20;74.60;;;;;;5053616;28;20178;-87
2022/04/16 10:58:28;;;;;;;0.10;0.10;;;15.20;73.90;;;;;;5053186;28;20176;-87
2022/04/16 11:01:07;;;;;;;0.10;0.10;;;15.10;73.30;;;;;;5053455;28;20242;-85
2022/04/16 11:03:36;;;;;;;0.30;0.30;;;15.10;73.80;;;;;;5053448;28;20616;-85
2022/04/16 11:06:06;;;;;;;0.30;0.30;;;15.10;74.30;;;;;;5052455;28;20168;-86
2022/04/16 11:08:35;;;;;;;0.20;0.20;;;15.00;73.60;;;;;;5052882;28;20180;-86
2022/04/16 11:11:02;;;;;;;0.30;0.30;;;14.90;74.00;;;;;;5052869;28;20258;-86
2022/04/16 11:13:38;;;;;;;1.30;0.30;;;14.80;74.10;;;;;;5053134;28;20164;-86
2022/04/16 11:16:05;;;;;;;0.30;0.30;;;14.60;74.60;;;;;;5056464;28;20171;-87
2022/04/16 11:18:47;;;;;;;0.40;0.40;;;14.60;75.10;;;;;;5057109;28;20164;-87
2022/04/16 11:21:25;;;;;;;0.40;0.40;;;14.70;74.60;;;;;;5055706;28;20207;-86
2022/04/16 11:23:52;;;;;;;0.50;0.50;;;15.10;74.40;;;;;;5055741;28;20171;-86
2022/04/16 11:34:41;;;;;;;0.23;0.23;;;15.50;71.80;;;;;;5073318;28;20173;-86
2022/04/16 11:37:07;;;;;;;0.50;0.37;;;15.40;72.20;;;;;;5068807;28;20196;-86
2022/04/16 11:39:34;;;;;;;0.40;0.40;;;15.20;71.80;;;;;;5057805;28;20175;-86
2022/04/16 11:42:06;;;;;;;0.30;0.30;;;15.10;71.40;;;;;;5055598;28;20214;-85
2022/04/16 11:44:38;;;;;;;0.30;0.30;;;15.00;71.30;;;;;;5057118;28;20167;-85
2022/04/16 11:47:24;;;;;;;0.40;0.40;;;15.10;71.70;;;;;;5057097;28;20179;-87
2022/04/16 11:49:53;;;;;;;0.30;0.30;;;15.30;71.90;;;;;;5057160;28;20164;-85
2022/04/16 11:52:30;;;;;;;0.40;0.40;;;15.30;73.00;;;;;;5055320;28;20172;-86
2022/04/16 11:54:59;;;;;;;0.30;0.30;;;15.40;73.90;;;;;;5056972;28;20179;-86
2022/04/16 11:57:25;;;;;;;0.57;0.33;;;15.40;74.30;;;;;;5056643;28;20177;-85
2022/04/16 12:00:18;;;;;;;4.33;0.30;;;15.30;74.40;;;;;;5057807;28;20198;-85
2022/04/16 12:02:47;;;;;;;0.50;0.50;;;15.10;71.90;;;;;;5059482;28;20183;-86
2022/04/16 12:05:28;;;;;;;0.50;0.50;;;14.90;72.20;;;;;;5060279;28;20179;-86
2022/04/16 12:07:55;;;;;;;0.30;0.30;;;14.80;71.60;;;;;;5057346;28;20157;-86
2022/04/16 12:10:24;;;;;;;0.50;0.50;;;14.70;72.10;;;;;;5056210;28;20223;-84
2022/04/16 12:12:53;;;;;;;0.40;0.40;;;14.70;72.20;;;;;;5056340;28;20207;-86
2022/04/16 12:15:27;;;;;;;0.30;0.30;;;14.80;73.50;;;;;;5056874;28;20175;-86
2022/04/16 12:17:54;;;;;;;0.37;0.37;;;14.90;73.10;;;;;;5056618;28;20168;-85
2022/04/16 12:20:21;;;;;;;1.53;0.40;;;15.10;72.50;;;;;;5055003;28;20269;-85
2022/04/16 12:22:56;;;;;;;0.30;0.30;;;15.20;71.30;;;;;;5055993;28;20631;-86
2022/04/16 12:25:23;;;;;;;1.17;0.30;;;15.10;69.90;;;;;;5054407;28;20225;-85
2022/04/16 12:27:58;;;;;;;0.40;0.40;;;15.00;69.20;;;;;;5055991;28;20210;-85
2022/04/16 12:30:30;;;;;;;1.00;0.40;;;15.00;68.90;;;;;;5056193;28;20159;-86
2022/04/16 12:33:00;;;;;;;0.50;0.50;;;15.10;67.70;;;;;;5055769;28;20194;-85
2022/04/16 12:35:31;;;;;;;0.30;0.30;;;15.00;67.50;;;;;;5055424;28;20281;-86
2022/04/16 12:37:58;;;;;;;0.50;0.40;;;15.00;67.60;;;;;;5056280;28;20250;-86
2022/04/16 12:40:25;;;;;;;0.20;0.20;;;15.20;68.10;;;;;;5054318;28;20215;-86
2022/04/16 12:42:52;;;;;;;0.20;0.20;;;15.30;65.90;;;;;;5055915;28;20175;-85
2022/04/16 12:45:19;;;;;;;0.27;0.27;;;15.20;66.50;;;;;;5055017;28;20628;-85
2022/04/16 12:47:45;;;;;;;0.30;0.30;;;15.10;66.20;;;;;;5055617;28;20168;-85
2022/04/16 12:50:12;;;;;;;0.67;0.67;;;15.10;67.90;;;;;;5056223;28;20179;-85
2022/04/16 12:52:38;;;;;;;0.60;0.60;;;15.00;69.00;;;;;;5055853;28;20302;-86
2022/04/16 12:55:04;;;;;;;0.73;0.50;;;14.90;69.30;;;;;;5055861;28;20222;-85
2022/04/16 12:57:30;;;;;;;1.13;0.53;;;14.80;70.30;;;;;;5054172;28;20186;-86
2022/04/16 12:59:55;;;;;;;0.40;0.40;;;14.70;69.70;;;;;;5055229;28;20191;-86
2022/04/16 13:02:21;;;;;;;0.47;0.47;;;14.60;68.50;;;;;;5055159;28;20189;-86
2022/04/16 13:04:47;;;;;;;0.40;0.40;;;14.50;69.70;;;;;;5037260;28;20180;-85
2022/04/16 13:07:13;;;;;;;0.40;0.40;;;14.50;69.20;;;;;;5053996;28;20184;-85
2022/04/16 13:09:39;;;;;;;0.50;0.50;;;14.50;68.80;;;;;;5054948;28;20239;-85
2022/04/16 13:12:05;;;;;;;0.40;0.40;;;14.40;69.30;;;;;;5055682;28;20182;-85
2022/04/16 13:14:31;;;;;;;0.30;0.30;;;14.40;69.20;;;;;;5053799;28;20180;-85
2022/04/16 13:16:56;;;;;;;0.30;0.30;;;14.60;70.20;;;;;;5055113;28;20172;-86
2022/04/16 13:19:23;;;;;;;0.40;0.40;;;14.70;69.10;;;;;;5055090;28;20175;-85